createdAt,value
2023-05-20T00:00:19.703Z,19.59
2023-05-20T00:03:06.041Z,19.54
2023-05-20T00:05:53.868Z,19.48
2023-05-20T00:08:39.976Z,19.82
2023-05-20T00:11:26.268Z,19.83
2023-05-20T00:14:12.314Z,19.96
2023-05-20T00:16:58.439Z,19.97
2023-05-20T00:19:44.815Z,20.19
2023-05-20T00:22:32.164Z,20.03
2023-05-20T00:25:18.447Z,20.03
2023-05-20T00:28:06.055Z,19.88
2023-05-20T00:30:52.294Z,19.91
2023-05-20T00:33:38.669Z,19.90
2023-05-20T00:36:24.784Z,19.84
2023-05-20T00:39:12.079Z,20.20
2023-05-20T00:42:00.524Z,19.61
2023-05-20T00:44:46.632Z,19.73
2023-05-20T00:47:34.727Z,19.68
2023-05-20T00:50:21.596Z,19.59
2023-05-20T00:53:08.219Z,19.43
2023-05-20T00:55:55.637Z,19.49
2023-05-20T00:58:41.842Z,19.24
2023-05-20T01:01:28.378Z,19.24
2023-05-20T01:04:14.427Z,19.13
2023-05-20T01:07:02.248Z,18.96
2023-05-20T01:09:48.448Z,19.27
2023-05-20T01:12:38.639Z,19.35
2023-05-20T01:15:26.094Z,19.15
2023-05-20T01:18:13.127Z,19.16
2023-05-20T01:21:02.366Z,18.94
2023-05-20T01:23:49.857Z,19.23
2023-05-20T01:26:38.414Z,19.30
2023-05-20T01:29:24.452Z,19.37
2023-05-20T01:32:12.934Z,19.20
2023-05-20T01:34:59.969Z,19.02
2023-05-20T01:37:47.203Z,18.83
2023-05-20T01:40:35.318Z,19.11
2023-05-20T01:43:22.013Z,19.08
2023-05-20T01:46:08.236Z,18.49
2023-05-20T01:48:54.439Z,18.82
2023-05-20T01:51:40.456Z,18.81
2023-05-20T01:54:26.697Z,18.96
2023-05-20T01:57:14.170Z,18.73
2023-05-20T02:00:00.168Z,18.74
2023-05-20T02:02:46.513Z,18.69
2023-05-20T02:05:33.111Z,18.81
2023-05-20T02:08:19.617Z,18.80
2023-05-20T02:11:05.811Z,18.83
2023-05-20T02:13:53.311Z,18.68
2023-05-20T02:16:39.794Z,18.53
2023-05-20T02:19:26.285Z,18.63
2023-05-20T02:22:12.761Z,18.62
2023-05-20T02:24:59.106Z,18.62
2023-05-20T02:27:45.066Z,18.46
2023-05-20T02:30:32.407Z,18.52
2023-05-20T02:33:18.596Z,18.55
2023-05-20T02:36:05.667Z,18.64
2023-05-20T02:38:54.592Z,18.68
2023-05-20T02:41:40.633Z,18.75
2023-05-20T02:44:26.527Z,18.73
2023-05-20T02:47:16.235Z,18.73
2023-05-20T02:50:03.263Z,18.69
2023-05-20T02:52:49.823Z,18.71
2023-05-20T02:55:36.684Z,18.40
2023-05-20T02:58:27.610Z,18.52
2023-05-20T03:01:14.000Z,18.53
2023-05-20T03:04:02.497Z,18.43
2023-05-20T03:06:48.603Z,18.36
2023-05-20T03:09:35.578Z,18.42
2023-05-20T03:12:21.616Z,18.32
2023-05-20T03:15:09.704Z,18.30
2023-05-20T03:17:56.797Z,18.26
2023-05-20T03:20:44.505Z,18.25
2023-05-20T03:23:31.074Z,18.11
2023-05-20T03:26:16.989Z,17.98
2023-05-20T03:29:03.034Z,17.94
2023-05-20T03:31:49.466Z,18.20
2023-05-20T03:34:35.856Z,18.20
2023-05-20T03:37:23.650Z,18.08
2023-05-20T03:40:11.245Z,17.69
2023-05-20T03:42:58.856Z,18.08
2023-05-20T03:45:44.864Z,18.11
2023-05-20T03:48:32.701Z,18.21
2023-05-20T03:51:19.020Z,18.23
2023-05-20T03:54:08.414Z,18.23
2023-05-20T03:56:54.988Z,18.23
2023-05-20T03:59:41.119Z,18.26
2023-05-20T04:02:27.471Z,18.21
2023-05-20T04:05:13.994Z,18.22
2023-05-20T04:08:01.073Z,18.03
2023-05-20T04:10:48.557Z,18.14
2023-05-20T04:13:34.624Z,18.22
2023-05-20T04:16:20.972Z,18.01
2023-05-20T04:19:07.168Z,18.06
2023-05-20T04:21:53.394Z,18.20
2023-05-20T04:24:39.694Z,18.23
2023-05-20T04:27:26.992Z,18.16
2023-05-20T04:30:13.838Z,17.90
2023-05-20T04:33:03.182Z,18.04
2023-05-20T04:35:49.249Z,18.07
2023-05-20T04:38:35.942Z,18.14
2023-05-20T04:41:21.749Z,17.85
2023-05-20T04:44:09.461Z,18.16
2023-05-20T04:46:55.442Z,17.91
2023-05-20T04:49:41.369Z,18.09
2023-05-20T04:52:27.503Z,18.25
2023-05-20T04:55:15.847Z,18.65
2023-05-20T04:58:02.112Z,18.43
2023-05-20T05:00:49.916Z,18.57
2023-05-20T05:03:36.738Z,18.53
2023-05-20T05:06:23.256Z,18.50
2023-05-20T05:09:09.769Z,18.94
2023-05-20T05:11:58.525Z,18.53
2023-05-20T05:14:45.028Z,18.67
2023-05-20T05:17:32.752Z,18.57
2023-05-20T05:20:19.482Z,18.63
2023-05-20T05:23:06.012Z,18.78
2023-05-20T05:25:52.891Z,18.69
2023-05-20T05:28:42.024Z,18.95
2023-05-20T05:31:27.989Z,19.13
2023-05-20T05:34:15.021Z,18.40
2023-05-20T05:37:01.026Z,18.92
2023-05-20T05:39:47.663Z,18.82
2023-05-20T05:42:33.994Z,19.23
2023-05-20T05:45:20.826Z,18.42
2023-05-20T05:48:07.440Z,19.14
2023-05-20T05:50:55.513Z,19.24
2023-05-20T05:53:41.884Z,19.53
2023-05-20T05:56:27.766Z,19.63
2023-05-20T05:59:16.980Z,19.79
2023-05-20T06:02:03.112Z,18.62
2023-05-20T06:04:49.576Z,19.74
2023-05-20T06:07:37.886Z,19.02
2023-05-20T06:10:24.118Z,18.92
2023-05-20T06:13:10.428Z,19.40
2023-05-20T06:15:56.570Z,19.50
2023-05-20T06:18:45.021Z,19.87
2023-05-20T06:21:32.529Z,19.97
2023-05-20T06:24:21.000Z,20.41
2023-05-20T06:27:08.193Z,19.98
2023-05-20T06:29:54.760Z,19.74
2023-05-20T06:32:42.152Z,19.81
2023-05-20T06:35:28.405Z,20.38
2023-05-20T06:38:14.330Z,20.25
2023-05-20T06:41:02.132Z,20.46
2023-05-20T06:43:50.506Z,20.20
2023-05-20T06:46:58.388Z,20.27
2023-05-20T06:49:47.159Z,20.72
2023-05-20T06:52:33.523Z,20.42
2023-05-20T06:55:19.936Z,20.32
2023-05-20T06:58:08.014Z,21.13
2023-05-20T07:00:54.229Z,21.16
2023-05-20T07:03:40.636Z,21.48
2023-05-20T07:06:27.053Z,20.58
2023-05-20T07:09:13.481Z,21.54
2023-05-20T07:12:00.763Z,21.97
2023-05-20T07:14:48.366Z,21.56
2023-05-20T07:17:35.055Z,21.75
2023-05-20T07:20:21.593Z,21.71
2023-05-20T07:23:08.479Z,22.56
2023-05-20T07:26:00.510Z,23.12
2023-05-20T07:28:47.172Z,23.04
2023-05-20T07:31:35.006Z,23.55
2023-05-20T07:34:22.616Z,22.90
2023-05-20T07:37:10.000Z,23.58
2023-05-20T07:39:56.533Z,24.03
2023-05-20T07:42:42.492Z,24.11
2023-05-20T07:45:29.370Z,23.26
2023-05-20T07:48:16.624Z,24.03
2023-05-20T07:51:02.920Z,23.41
2023-05-20T07:53:49.564Z,23.48
2023-05-20T07:56:36.100Z,24.14
2023-05-20T07:59:22.319Z,24.09
2023-05-20T08:02:09.662Z,23.91
2023-05-20T08:04:57.270Z,24.45
2023-05-20T08:07:43.170Z,24.37
2023-05-20T08:10:30.123Z,24.58
2023-05-20T08:13:17.077Z,24.69
2023-05-20T08:16:04.870Z,23.88
2023-05-20T08:18:51.146Z,25.00
2023-05-20T08:21:41.216Z,25.07
2023-05-20T08:24:27.635Z,25.06
2023-05-20T08:27:14.702Z,25.45
2023-05-20T08:30:02.216Z,26.07
2023-05-20T08:32:49.555Z,26.16
2023-05-20T08:35:36.400Z,26.52
2023-05-20T08:38:23.588Z,26.71
2023-05-20T08:41:09.736Z,26.72
2023-05-20T08:43:58.390Z,25.41
2023-05-20T08:46:46.749Z,27.01
2023-05-20T08:49:33.234Z,26.80
2023-05-20T08:52:22.242Z,26.64
2023-05-20T08:55:11.340Z,26.49
2023-05-20T08:57:58.109Z,25.88
2023-05-20T09:00:44.187Z,26.20
2023-05-20T09:03:30.514Z,26.64
2023-05-20T09:06:18.210Z,25.60
2023-05-20T09:09:04.907Z,25.42
2023-05-20T09:11:52.277Z,26.64
2023-05-20T09:14:38.571Z,26.13
2023-05-20T09:17:25.416Z,25.82
2023-05-20T09:20:12.726Z,26.14
2023-05-20T09:23:02.938Z,26.34
2023-05-20T09:25:51.053Z,25.47
2023-05-20T09:28:40.907Z,25.10
2023-05-20T09:31:28.049Z,26.08
2023-05-20T09:34:14.357Z,26.04
2023-05-20T09:37:01.626Z,25.47
2023-05-20T09:39:59.538Z,25.93
2023-05-20T09:42:49.199Z,25.66
2023-05-20T09:45:36.682Z,25.26
2023-05-20T09:48:23.244Z,25.32
2023-05-20T09:51:09.679Z,24.62
2023-05-20T09:53:56.904Z,25.04
2023-05-20T09:56:42.885Z,25.39
2023-05-20T09:59:29.629Z,25.54
2023-05-20T10:02:17.199Z,24.29
2023-05-20T10:05:06.144Z,23.84
2023-05-20T10:08:13.447Z,24.13
2023-05-20T10:11:06.790Z,24.63
2023-05-20T10:14:09.026Z,24.75
2023-05-20T10:16:59.039Z,23.84
2023-05-20T10:19:46.739Z,23.64
2023-05-20T10:22:32.914Z,24.27
2023-05-20T10:25:26.495Z,24.32
2023-05-20T10:28:12.628Z,24.28
2023-05-20T10:30:59.296Z,24.43
2023-05-20T10:33:47.156Z,24.35
2023-05-20T10:36:35.020Z,24.22
2023-05-20T10:39:27.213Z,24.46
2023-05-20T10:42:13.499Z,24.04
2023-05-20T10:44:59.486Z,23.73
2023-05-20T10:47:55.714Z,24.32
2023-05-20T10:50:41.847Z,23.89
2023-05-20T10:53:33.310Z,23.72
2023-05-20T10:56:21.429Z,23.79
2023-05-20T10:59:08.027Z,23.97
2023-05-20T11:01:54.770Z,24.31
2023-05-20T11:04:40.892Z,24.50
2023-05-20T11:07:28.384Z,24.25
2023-05-20T11:10:15.935Z,24.18
2023-05-20T11:13:03.385Z,23.67
2023-05-20T11:15:50.299Z,24.02
2023-05-20T11:18:36.767Z,23.98
2023-05-20T11:21:22.628Z,24.85
2023-05-20T11:24:08.576Z,24.86
2023-05-20T11:26:57.460Z,25.35
2023-05-20T11:29:43.955Z,25.30
2023-05-20T11:32:29.931Z,24.72
2023-05-20T11:35:24.336Z,25.38
2023-05-20T11:38:10.378Z,25.41
2023-05-20T11:40:57.094Z,25.34
2023-05-20T11:43:44.675Z,25.71
2023-05-20T11:46:30.722Z,25.30
2023-05-20T11:49:17.717Z,25.73
2023-05-20T11:52:04.389Z,25.49
2023-05-20T11:54:53.798Z,25.67
2023-05-20T11:57:39.899Z,25.64
2023-05-20T12:00:31.206Z,24.44
2023-05-20T12:03:20.314Z,25.73
2023-05-20T12:06:06.750Z,25.30
2023-05-20T12:08:52.982Z,25.49
2023-05-20T12:11:41.056Z,25.95
2023-05-20T12:14:27.432Z,26.38
2023-05-20T12:17:14.732Z,26.53
2023-05-20T12:20:01.033Z,26.72
2023-05-20T12:22:47.141Z,27.30
2023-05-20T12:25:33.415Z,27.10
2023-05-20T12:28:19.493Z,26.42
2023-05-20T12:31:05.982Z,26.02
2023-05-20T12:33:53.672Z,27.15
2023-05-20T12:36:40.159Z,26.53
2023-05-20T12:39:27.016Z,26.82
2023-05-20T12:42:13.392Z,27.18
2023-05-20T12:44:59.350Z,27.14
2023-05-20T12:47:45.737Z,27.78
2023-05-20T12:50:33.669Z,26.71
2023-05-20T12:53:19.695Z,27.31
2023-05-20T12:56:07.910Z,27.27
2023-05-20T12:58:54.114Z,26.90
2023-05-20T13:01:40.819Z,26.58
2023-05-20T13:04:26.901Z,26.87
2023-05-20T13:07:14.058Z,26.19
2023-05-20T13:10:00.532Z,26.69
2023-05-20T13:12:46.792Z,26.63
2023-05-20T13:15:33.452Z,26.08
2023-05-20T13:18:19.973Z,26.76
2023-05-20T13:21:06.367Z,26.90
2023-05-20T13:23:53.750Z,26.49
2023-05-20T13:26:39.688Z,25.21
2023-05-20T13:29:26.458Z,25.42
2023-05-20T13:32:12.857Z,25.98
2023-05-20T13:34:59.616Z,26.29
2023-05-20T13:37:45.677Z,27.06
2023-05-20T13:40:33.449Z,25.72
2023-05-20T13:43:19.565Z,26.40
2023-05-20T13:46:05.953Z,27.21
2023-05-20T13:48:52.122Z,27.29
2023-05-20T13:51:38.005Z,26.91
2023-05-20T13:54:23.919Z,25.46
2023-05-20T13:57:11.314Z,26.37
2023-05-20T13:59:57.134Z,24.86
2023-05-20T14:02:43.039Z,25.76
2023-05-20T14:05:29.556Z,25.98
2023-05-20T14:08:15.407Z,25.42
2023-05-20T14:11:01.654Z,25.82
2023-05-20T14:13:48.951Z,25.21
2023-05-20T14:16:34.940Z,25.82
2023-05-20T14:19:21.375Z,25.88
2023-05-20T14:22:07.730Z,25.57
2023-05-20T14:24:53.774Z,25.41
2023-05-20T14:27:39.709Z,26.03
2023-05-20T14:30:27.507Z,26.55
2023-05-20T14:33:13.281Z,25.93
2023-05-20T14:35:59.745Z,26.23
2023-05-20T14:38:47.557Z,25.21
2023-05-20T14:41:34.514Z,25.77
2023-05-20T14:44:20.785Z,24.58
2023-05-20T14:47:08.389Z,25.07
2023-05-20T14:49:54.708Z,25.11
2023-05-20T14:52:40.767Z,25.78
2023-05-20T14:55:26.755Z,26.18
2023-05-20T14:58:13.102Z,26.09
2023-05-20T15:00:59.085Z,25.18
2023-05-20T15:03:47.061Z,24.74
2023-05-20T15:06:34.937Z,24.50
2023-05-20T15:09:21.150Z,25.39
2023-05-20T15:12:07.548Z,24.78
2023-05-20T15:14:53.755Z,25.27
2023-05-20T15:17:39.797Z,25.75
2023-05-20T15:20:27.736Z,25.59
2023-05-20T15:23:13.978Z,25.59
2023-05-20T15:25:59.738Z,25.92
2023-05-20T15:28:45.632Z,25.98
2023-05-20T15:31:31.700Z,25.39
2023-05-20T15:34:17.529Z,26.04
2023-05-20T15:37:04.822Z,25.74
2023-05-20T15:39:50.941Z,25.68
2023-05-20T15:42:37.053Z,24.77
2023-05-20T15:45:23.093Z,25.34
2023-05-20T15:48:09.468Z,25.60
2023-05-20T15:50:55.720Z,25.04
2023-05-20T15:53:43.307Z,25.39
2023-05-20T15:56:29.908Z,24.21
2023-05-20T15:59:15.854Z,25.41
2023-05-20T16:02:02.305Z,25.06
2023-05-20T16:04:48.749Z,25.35
2023-05-20T16:07:34.743Z,25.09
2023-05-20T16:10:23.967Z,25.14
2023-05-20T16:13:12.016Z,25.30
2023-05-20T16:15:58.428Z,25.37
2023-05-20T16:18:44.717Z,25.52
2023-05-20T16:21:31.190Z,24.26
2023-05-20T16:24:17.608Z,25.35
2023-05-20T16:27:05.753Z,25.76
2023-05-20T16:29:51.534Z,25.72
2023-05-20T16:32:37.536Z,24.81
2023-05-20T16:35:23.967Z,24.91
2023-05-20T16:38:10.204Z,25.55
2023-05-20T16:40:56.375Z,25.70
2023-05-20T16:43:43.684Z,25.41
2023-05-20T16:46:29.647Z,24.97
2023-05-20T16:49:15.901Z,24.89
2023-05-20T16:52:02.008Z,24.63
2023-05-20T16:54:48.222Z,25.34
2023-05-20T16:57:35.071Z,25.34
2023-05-20T17:00:22.823Z,24.85
2023-05-20T17:03:09.121Z,25.19
2023-05-20T17:05:55.814Z,25.29
2023-05-20T17:08:41.702Z,24.89
2023-05-20T17:11:27.709Z,25.35
2023-05-20T17:14:13.711Z,25.25
2023-05-20T17:17:01.124Z,25.92
2023-05-20T17:19:47.355Z,25.48
2023-05-20T17:22:33.181Z,25.59
2023-05-20T17:25:19.015Z,25.74
2023-05-20T17:28:05.410Z,25.22
2023-05-20T17:30:51.685Z,25.19
2023-05-20T17:33:39.940Z,25.22
2023-05-20T17:36:26.492Z,25.09
2023-05-20T17:39:13.618Z,25.52
2023-05-20T17:41:59.491Z,25.52
2023-05-20T17:44:46.470Z,25.54
2023-05-20T17:47:32.634Z,25.16
2023-05-20T17:50:20.372Z,25.51
2023-05-20T17:53:06.569Z,25.07
2023-05-20T17:55:52.382Z,25.51
2023-05-20T17:58:38.355Z,25.05
2023-05-20T18:01:24.666Z,24.99
2023-05-20T18:04:11.006Z,25.24
2023-05-20T18:06:58.724Z,24.95
2023-05-20T18:09:45.044Z,25.51
2023-05-20T18:12:31.394Z,25.59
2023-05-20T18:15:18.313Z,25.68
2023-05-20T18:18:04.434Z,25.14
2023-05-20T18:20:50.895Z,25.31
2023-05-20T18:23:38.250Z,24.92
2023-05-20T18:26:24.598Z,25.36
2023-05-20T18:29:12.359Z,25.08
2023-05-20T18:31:58.593Z,25.26
2023-05-20T18:34:45.123Z,25.28
2023-05-20T18:37:31.412Z,25.19
2023-05-20T18:40:20.488Z,25.19
2023-05-20T18:43:06.638Z,25.32
2023-05-20T18:45:52.609Z,25.29
2023-05-20T18:48:38.937Z,25.22
2023-05-20T18:51:25.679Z,25.09
2023-05-20T18:54:11.796Z,25.15
2023-05-20T18:56:59.088Z,24.94
2023-05-20T18:59:45.132Z,25.11
2023-05-20T19:02:31.041Z,25.13
2023-05-20T19:05:16.983Z,25.12
2023-05-20T19:08:05.868Z,25.12
2023-05-20T19:10:51.764Z,25.00
2023-05-20T19:13:38.977Z,24.89
2023-05-20T19:16:26.095Z,24.77
2023-05-20T19:19:12.521Z,24.90
2023-05-20T19:21:58.467Z,24.76
2023-05-20T19:24:44.814Z,24.77
2023-05-20T19:27:30.789Z,24.57
2023-05-20T19:30:18.093Z,24.56
2023-05-20T19:33:05.461Z,24.38
2023-05-20T19:35:51.470Z,24.56
2023-05-20T19:38:38.774Z,24.61
2023-05-20T19:41:24.996Z,24.52
2023-05-20T19:44:11.759Z,24.65
2023-05-20T19:46:59.624Z,24.48
2023-05-20T19:49:45.717Z,24.43
2023-05-20T19:52:32.136Z,24.62
2023-05-20T19:55:18.381Z,24.60
2023-05-20T19:58:04.354Z,24.65
2023-05-20T20:00:50.596Z,24.41
2023-05-20T20:03:37.886Z,24.14
2023-05-20T20:06:23.804Z,24.15
2023-05-20T20:09:10.464Z,24.29
2023-05-20T20:11:56.497Z,24.27
2023-05-20T20:14:42.465Z,23.72
2023-05-20T20:17:30.200Z,23.75
2023-05-20T20:20:18.443Z,23.73
2023-05-20T20:23:04.676Z,23.80
2023-05-20T20:25:51.084Z,24.00
2023-05-20T20:28:36.892Z,24.06
2023-05-20T20:31:22.967Z,24.01
2023-05-20T20:34:09.007Z,23.93
2023-05-20T20:36:56.340Z,23.47
2023-05-20T20:39:42.591Z,23.59
2023-05-20T20:42:28.726Z,22.92
2023-05-20T20:45:15.164Z,23.47
2023-05-20T20:48:04.672Z,23.58
2023-05-20T20:50:50.887Z,22.71
2023-05-20T20:53:38.419Z,22.61
2023-05-20T20:56:25.631Z,22.90
2023-05-20T20:59:13.394Z,23.13
2023-05-20T21:01:59.453Z,23.34
2023-05-20T21:04:47.275Z,23.19
2023-05-20T21:07:33.404Z,23.31
2023-05-20T21:10:20.651Z,23.16
2023-05-20T21:13:06.892Z,23.31
2023-05-20T21:15:53.667Z,22.95
2023-05-20T21:18:40.533Z,23.27
2023-05-20T21:21:26.876Z,23.15
2023-05-20T21:24:12.718Z,22.83
2023-05-20T21:27:00.011Z,22.97
2023-05-20T21:29:46.196Z,22.95
2023-05-20T21:32:32.700Z,22.89
2023-05-20T21:35:19.120Z,22.84
2023-05-20T21:38:05.310Z,22.61
2023-05-20T21:40:51.188Z,22.86
2023-05-20T21:43:38.684Z,22.88
2023-05-20T21:46:24.838Z,22.66
2023-05-20T21:49:11.039Z,22.59
2023-05-20T21:51:57.257Z,22.72
2023-05-20T21:54:43.810Z,22.17
2023-05-20T21:57:29.714Z,22.43
2023-05-20T22:00:18.894Z,22.17
2023-05-20T22:03:05.096Z,22.42
2023-05-20T22:05:51.669Z,22.65
2023-05-20T22:08:37.634Z,22.73
2023-05-20T22:11:23.864Z,22.63
2023-05-20T22:14:10.122Z,22.56
2023-05-20T22:16:58.785Z,22.55
2023-05-20T22:19:44.757Z,22.40
2023-05-20T22:22:32.258Z,22.43
2023-05-20T22:25:18.539Z,22.25
2023-05-20T22:28:05.237Z,22.24
2023-05-20T22:30:51.780Z,22.15
2023-05-20T22:33:41.370Z,22.20
2023-05-20T22:36:33.678Z,21.91
2023-05-20T22:39:19.616Z,21.95
2023-05-20T22:42:06.086Z,21.89
2023-05-20T22:44:51.882Z,21.93
2023-05-20T22:47:37.797Z,21.99
2023-05-20T22:50:26.182Z,21.90
2023-05-20T22:53:12.803Z,21.91
2023-05-20T22:55:59.757Z,21.80
2023-05-20T22:58:46.011Z,21.89
2023-05-20T23:01:32.500Z,21.83
2023-05-20T23:04:19.287Z,21.78
2023-05-20T23:07:06.879Z,21.84
2023-05-20T23:09:52.743Z,21.74
2023-05-20T23:12:38.922Z,21.77
2023-05-20T23:15:25.544Z,21.75
2023-05-20T23:18:12.127Z,21.55
2023-05-20T23:20:58.503Z,21.70
2023-05-20T23:23:45.817Z,21.75
2023-05-20T23:26:34.325Z,21.76
2023-05-20T23:29:21.374Z,21.82
2023-05-20T23:32:08.340Z,21.70
2023-05-20T23:34:55.123Z,21.33
2023-05-20T23:37:42.023Z,21.66
2023-05-20T23:40:29.574Z,21.73
2023-05-20T23:43:15.805Z,21.58
2023-05-20T23:46:01.804Z,21.55
2023-05-20T23:48:48.243Z,21.65
2023-05-20T23:51:35.449Z,21.44
2023-05-20T23:54:22.680Z,21.43
2023-05-20T23:57:11.689Z,21.45
2023-05-20T23:59:57.864Z,21.61
